createdAt,value
2018-10-02T00:00:00.742Z,0
2018-10-02T00:00:41.172Z,0
2018-10-02T00:01:21.671Z,0
2018-10-02T00:02:02.132Z,0
2018-10-02T00:02:42.792Z,0
2018-10-02T00:03:23.621Z,0
2018-10-02T00:04:04.026Z,0
2018-10-02T00:04:44.485Z,0
2018-10-02T00:05:24.825Z,0
2018-10-02T00:06:05.297Z,0
2018-10-02T00:06:45.643Z,0
2018-10-02T00:07:26.055Z,0
2018-10-02T00:08:08.034Z,0
2018-10-02T00:08:49.284Z,0
2018-10-02T00:09:30.660Z,0
2018-10-02T00:10:11.714Z,0
2018-10-02T00:10:56.322Z,0
2018-10-02T00:11:38.899Z,0
2018-10-02T00:12:19.362Z,0
2018-10-02T00:13:00.119Z,0
2018-10-02T00:13:42.083Z,0
2018-10-02T00:26:41.871Z,0
2018-10-02T00:27:31.915Z,0
2018-10-02T00:51:47.187Z,0
2018-10-02T00:52:36.176Z,0
2018-10-02T00:53:14.572Z,0
2018-10-02T00:53:54.983Z,0
2018-10-02T00:54:35.745Z,0
2018-10-02T01:01:47.977Z,0
2018-10-02T01:02:30.123Z,0
2018-10-02T01:03:15.778Z,0
2018-10-02T01:03:56.196Z,0
2018-10-02T01:04:36.918Z,0
2018-10-02T01:05:22.257Z,0
2018-10-02T01:06:04.841Z,0
2018-10-02T01:06:45.745Z,0
2018-10-02T01:07:28.034Z,0
2018-10-02T01:08:08.421Z,0
2018-10-02T01:08:49.076Z,0
2018-10-02T01:09:30.860Z,0
2018-10-02T01:15:56.881Z,0
2018-10-02T01:16:39.738Z,0
2018-10-02T01:17:21.464Z,0
2018-10-02T01:18:12.901Z,0
2018-10-02T01:18:54.894Z,0
2018-10-02T01:19:38.881Z,0
2018-10-02T01:27:39.611Z,0
2018-10-02T01:28:23.049Z,0
2018-10-02T01:29:03.283Z,0
2018-10-02T01:29:48.862Z,0
2018-10-02T01:30:29.203Z,0
2018-10-02T01:31:12.485Z,0
2018-10-02T01:31:56.096Z,0
2018-10-02T01:32:41.160Z,0
2018-10-02T01:38:40.344Z,0
2018-10-02T01:39:19.566Z,0
2018-10-02T01:40:00.060Z,0
2018-10-02T01:40:41.418Z,0
2018-10-02T01:41:21.647Z,0
2018-10-02T01:42:02.094Z,0
2018-10-02T01:42:42.839Z,0
2018-10-02T01:43:23.124Z,0
2018-10-02T01:44:03.799Z,0
2018-10-02T01:44:44.174Z,0
2018-10-02T01:45:25.650Z,0
2018-10-02T01:46:06.067Z,0
2018-10-02T01:46:46.867Z,0
2018-10-02T01:47:29.734Z,0
2018-10-02T01:48:10.268Z,0
2018-10-02T01:48:50.659Z,0
2018-10-02T01:49:31.527Z,0
2018-10-02T01:50:11.875Z,0
2018-10-02T01:50:57.391Z,0
2018-10-02T01:51:37.738Z,0
2018-10-02T01:52:18.519Z,0
2018-10-02T01:53:00.746Z,0
2018-10-02T01:58:00.042Z,0
2018-10-02T01:58:40.601Z,0
2018-10-02T01:59:21.011Z,0
2018-10-02T02:00:01.840Z,0
2018-10-02T02:00:42.549Z,0
2018-10-02T02:01:22.923Z,0
2018-10-02T02:02:05.159Z,0
2018-10-02T02:02:45.559Z,0
2018-10-02T02:03:26.123Z,0
2018-10-02T02:04:07.027Z,0
2018-10-02T02:04:47.356Z,0
2018-10-02T02:05:27.744Z,0
2018-10-02T02:06:09.778Z,0
2018-10-02T02:06:50.055Z,0
2018-10-02T02:07:30.637Z,0
2018-10-02T02:08:13.913Z,0
2018-10-02T02:08:52.495Z,0
2018-10-02T02:09:33.103Z,0
2018-10-02T02:10:13.466Z,0
2018-10-02T02:10:54.427Z,0
2018-10-02T02:17:07.401Z,0
2018-10-02T02:19:34.156Z,0
2018-10-02T02:20:13.906Z,0
2018-10-02T02:20:54.205Z,0
2018-10-02T02:21:34.600Z,0
2018-10-02T02:22:15.115Z,0
2018-10-02T02:22:55.483Z,0
2018-10-02T02:23:36.875Z,0
2018-10-02T02:24:17.141Z,0
2018-10-02T02:24:57.222Z,0
2018-10-02T02:25:39.208Z,0
2018-10-02T02:26:23.320Z,0
2018-10-02T02:27:04.064Z,0
2018-10-02T02:27:44.939Z,0
2018-10-02T02:28:27.706Z,0
2018-10-02T02:29:08.860Z,0
2018-10-02T02:29:49.240Z,0
2018-10-02T02:30:29.676Z,0
2018-10-02T02:31:09.989Z,0
2018-10-02T02:31:50.635Z,0
2018-10-02T02:32:31.833Z,0
2018-10-02T02:33:13.161Z,0
2018-10-02T02:33:53.489Z,0
2018-10-02T02:34:34.601Z,0
2018-10-02T02:35:15.221Z,0
2018-10-02T02:35:55.634Z,0
2018-10-02T02:36:36.082Z,0
2018-10-02T02:37:16.622Z,0
2018-10-02T02:38:00.001Z,0
2018-10-02T02:38:39.400Z,0
2018-10-02T02:39:19.766Z,0
2018-10-02T02:40:00.275Z,0
2018-10-02T02:40:41.411Z,0
2018-10-02T02:41:23.643Z,0
2018-10-02T02:42:03.918Z,0
2018-10-02T02:42:44.359Z,0
2018-10-02T02:43:28.818Z,0
2018-10-02T02:44:08.406Z,0
2018-10-02T02:44:49.008Z,0
2018-10-02T02:45:29.742Z,0
2018-10-02T02:46:10.245Z,0
2018-10-02T02:46:50.619Z,0
2018-10-02T02:47:31.509Z,0
2018-10-02T02:48:17.608Z,0
2018-10-02T02:48:56.116Z,0
2018-10-02T02:49:36.562Z,0
2018-10-02T02:50:16.917Z,0
2018-10-02T02:50:57.411Z,0
2018-10-02T02:51:38.182Z,0
2018-10-02T02:52:19.179Z,0
2018-10-02T02:52:59.505Z,0
2018-10-02T02:53:40.045Z,0
2018-10-02T02:54:20.343Z,0
2018-10-02T02:55:00.896Z,0
2018-10-02T02:55:41.478Z,0
2018-10-02T02:56:22.200Z,0
2018-10-02T02:57:03.606Z,0
2018-10-02T02:57:43.711Z,0
2018-10-02T02:58:24.878Z,0
2018-10-02T02:59:05.197Z,0
2018-10-02T02:59:45.612Z,0
2018-10-02T03:00:26.447Z,0
2018-10-02T03:01:06.636Z,0
2018-10-02T03:01:46.964Z,0
2018-10-02T03:02:27.568Z,0
2018-10-02T03:03:08.428Z,0
2018-10-02T03:03:48.861Z,0
2018-10-02T03:04:28.971Z,0
2018-10-02T03:05:10.383Z,0
2018-10-02T03:05:53.023Z,0
2018-10-02T03:06:33.459Z,0
2018-10-02T03:07:14.274Z,0
2018-10-02T03:07:55.037Z,0
2018-10-02T03:08:35.071Z,0
2018-10-02T03:09:15.961Z,0
2018-10-02T03:09:56.508Z,0
2018-10-02T03:10:36.882Z,0
2018-10-02T03:11:17.578Z,0
2018-10-02T03:11:58.247Z,0
2018-10-02T03:12:38.678Z,0
2018-10-02T03:13:19.303Z,0
2018-10-02T03:13:59.814Z,0
2018-10-02T03:14:40.115Z,0
2018-10-02T03:15:20.605Z,0
2018-10-02T03:16:00.917Z,0
2018-10-02T03:16:41.272Z,0
2018-10-02T03:17:22.156Z,0
2018-10-02T03:18:02.621Z,0
2018-10-02T03:18:42.922Z,0
2018-10-02T03:19:23.350Z,0
2018-10-02T03:20:03.826Z,0
2018-10-02T03:20:44.390Z,0
2018-10-02T03:21:25.071Z,0
2018-10-02T03:22:05.457Z,0
2018-10-02T03:22:46.016Z,0
2018-10-02T03:23:26.538Z,0
2018-10-02T03:24:07.068Z,0
2018-10-02T03:24:47.697Z,0
2018-10-02T03:25:28.359Z,0
2018-10-02T03:26:08.745Z,0
2018-10-02T03:26:49.383Z,0
2018-10-02T03:27:29.946Z,0
2018-10-02T03:28:10.240Z,0
2018-10-02T03:28:50.650Z,0
2018-10-02T03:29:31.242Z,0
2018-10-02T03:30:11.663Z,0
2018-10-02T03:30:52.266Z,0
2018-10-02T03:31:32.686Z,0
2018-10-02T03:32:13.055Z,0
2018-10-02T03:32:53.695Z,0
2018-10-02T03:33:36.645Z,0
2018-10-02T03:34:16.831Z,0
2018-10-02T03:34:57.226Z,0
2018-10-02T03:35:37.604Z,0
2018-10-02T03:36:18.729Z,0
2018-10-02T03:36:59.423Z,0
2018-10-02T03:37:39.882Z,0
2018-10-02T03:38:20.621Z,0
2018-10-02T03:39:01.046Z,0
2018-10-02T03:39:41.644Z,0
2018-10-02T03:40:21.954Z,0
2018-10-02T03:41:02.882Z,0
2018-10-02T03:41:43.221Z,0
2018-10-02T03:42:23.831Z,0
2018-10-02T03:43:04.222Z,0
2018-10-02T03:43:44.882Z,0
2018-10-02T03:44:25.582Z,0
2018-10-02T03:45:05.910Z,0
2018-10-02T03:45:46.245Z,0
2018-10-02T03:46:26.907Z,0
2018-10-02T03:47:07.213Z,0
2018-10-02T03:47:47.751Z,0
2018-10-02T03:48:28.191Z,0
2018-10-02T03:49:08.664Z,0
2018-10-02T03:49:48.917Z,0
2018-10-02T03:50:29.465Z,0
2018-10-02T03:51:10.023Z,0
2018-10-02T03:51:50.309Z,0
2018-10-02T03:52:30.985Z,0
2018-10-02T03:53:11.634Z,0
2018-10-02T03:53:51.890Z,0
2018-10-02T03:54:32.606Z,0
2018-10-02T03:55:12.956Z,0
2018-10-02T03:55:53.468Z,0
2018-10-02T03:56:33.758Z,0
2018-10-02T03:57:14.390Z,0
2018-10-02T03:57:54.906Z,0
2018-10-02T03:58:35.686Z,0
2018-10-02T03:59:15.941Z,0
2018-10-02T03:59:56.489Z,0
2018-10-02T04:00:37.244Z,0
2018-10-02T04:01:18.116Z,0
2018-10-02T04:01:57.968Z,0
2018-10-02T04:02:38.911Z,0
2018-10-02T04:03:20.172Z,0
2018-10-02T04:04:00.369Z,0
2018-10-02T04:04:40.676Z,0
2018-10-02T04:05:21.246Z,0
2018-10-02T04:06:02.225Z,0
2018-10-02T04:06:42.514Z,0
2018-10-02T04:07:23.250Z,0
2018-10-02T04:08:03.839Z,0
2018-10-02T04:08:46.141Z,0
2018-10-02T04:09:27.165Z,0
2018-10-02T04:10:07.583Z,0
2018-10-02T04:10:48.235Z,0
2018-10-02T04:11:30.195Z,0
2018-10-02T04:12:11.666Z,0
2018-10-02T04:12:56.893Z,0
2018-10-02T04:13:37.181Z,0
2018-10-02T04:14:18.029Z,0
2018-10-02T04:14:58.588Z,0
2018-10-02T04:15:38.730Z,0
2018-10-02T04:16:20.111Z,0
2018-10-02T04:17:00.441Z,0
2018-10-02T04:17:40.912Z,0
2018-10-02T04:18:23.192Z,0
2018-10-02T04:19:04.450Z,0
2018-10-02T04:19:44.993Z,0
2018-10-02T04:20:26.617Z,0
2018-10-02T04:21:07.238Z,0
2018-10-02T04:21:47.917Z,0
2018-10-02T04:22:28.254Z,0
2018-10-02T04:23:08.762Z,0
2018-10-02T04:23:49.210Z,0
2018-10-02T04:24:31.805Z,0
2018-10-02T04:25:11.497Z,0
2018-10-02T05:06:39.061Z,0
2018-10-02T05:07:31.365Z,0
2018-10-02T05:08:23.808Z,0
2018-10-02T05:09:19.242Z,0
2018-10-02T05:10:16.890Z,0
2018-10-02T05:11:10.084Z,0
2018-10-02T05:12:02.252Z,0
2018-10-02T05:12:57.061Z,0
2018-10-02T05:15:58.309Z,0
2018-10-02T05:16:50.667Z,0
2018-10-02T05:17:43.911Z,0
2018-10-02T05:18:40.675Z,0
2018-10-02T05:19:40.693Z,0
2018-10-02T05:20:34.789Z,0
2018-10-02T05:21:32.952Z,0
2018-10-02T05:22:26.686Z,0
2018-10-02T05:23:19.217Z,0
2018-10-02T05:24:12.154Z,0
2018-10-02T05:25:05.908Z,0
2018-10-02T05:26:01.216Z,4
2018-10-02T05:26:56.784Z,4
2018-10-02T05:27:50.875Z,4
2018-10-02T05:28:48.890Z,4
2018-10-02T05:31:22.702Z,4
2018-10-02T05:32:03.082Z,4
2018-10-02T05:32:43.903Z,4
2018-10-02T05:33:26.591Z,4
2018-10-02T05:36:09.922Z,8
2018-10-02T05:37:03.509Z,8
2018-10-02T05:37:56.130Z,8
2018-10-02T05:38:51.188Z,12
2018-10-02T05:39:45.373Z,12
2018-10-02T05:40:43.757Z,12
2018-10-02T05:41:52.860Z,16
2018-10-02T05:42:57.230Z,16
2018-10-02T05:43:55.374Z,12
2018-10-02T05:45:04.772Z,16
2018-10-02T05:45:57.510Z,20
2018-10-02T05:47:14.070Z,20
2018-10-02T05:50:52.789Z,24
2018-10-02T05:55:17.241Z,24
2018-10-02T05:55:57.559Z,28
2018-10-02T05:56:37.985Z,28
2018-10-02T05:57:18.404Z,28
2018-10-02T05:57:58.928Z,32
2018-10-02T05:58:39.322Z,32
2018-10-02T05:59:20.024Z,36
2018-10-02T06:00:00.415Z,36
2018-10-02T06:00:40.945Z,40
2018-10-02T06:01:21.310Z,44
2018-10-02T06:02:03.239Z,48
2018-10-02T06:02:43.998Z,52
2018-10-02T06:03:24.238Z,56
2018-10-02T06:04:04.869Z,60
2018-10-02T06:04:45.164Z,64
2018-10-02T06:05:25.697Z,68
2018-10-02T06:06:06.127Z,64
2018-10-02T06:06:46.569Z,64
2018-10-02T06:07:27.037Z,68
2018-10-02T06:08:07.481Z,68
2018-10-02T06:08:47.891Z,64
2018-10-02T06:09:28.382Z,64
2018-10-02T06:10:09.422Z,60
2018-10-02T06:10:50.956Z,68
2018-10-02T06:11:31.632Z,72
2018-10-02T06:12:11.937Z,72
2018-10-02T06:12:52.386Z,76
2018-10-02T06:13:32.813Z,76
2018-10-02T06:14:13.474Z,80
2018-10-02T06:14:54.603Z,80
2018-10-02T06:15:35.633Z,84
2018-10-02T06:16:16.363Z,88
2018-10-02T06:16:58.619Z,96
2018-10-02T06:17:40.883Z,100
2018-10-02T06:18:21.635Z,104
2018-10-02T06:19:02.164Z,108
2018-10-02T06:19:42.685Z,112
2018-10-02T06:20:23.308Z,108
2018-10-02T06:21:04.246Z,108
2018-10-02T06:21:44.482Z,108
2018-10-02T06:22:25.079Z,112
2018-10-02T06:23:05.580Z,112
2018-10-02T06:23:46.019Z,108
2018-10-02T06:24:26.610Z,100
2018-10-02T06:25:07.071Z,92
2018-10-02T06:25:47.714Z,84
2018-10-02T06:26:28.331Z,76
2018-10-02T06:27:08.856Z,76
2018-10-02T06:27:49.227Z,76
2018-10-02T06:28:29.990Z,72
2018-10-02T06:29:10.541Z,68
2018-10-02T06:29:51.062Z,68
2018-10-02T06:30:33.569Z,64
2018-10-02T06:31:14.290Z,64
2018-10-02T06:31:55.354Z,68
2018-10-02T06:32:35.399Z,60
2018-10-02T06:33:15.634Z,60
2018-10-02T06:33:56.086Z,60
2018-10-02T06:34:36.989Z,68
2018-10-02T06:35:17.357Z,72
2018-10-02T06:35:58.743Z,80
2018-10-02T06:36:38.550Z,84
2018-10-02T06:37:19.027Z,88
2018-10-02T06:37:59.514Z,96
2018-10-02T06:38:39.915Z,92
2018-10-02T06:39:20.171Z,88
2018-10-02T06:40:00.715Z,92
2018-10-02T06:40:41.277Z,96
2018-10-02T06:41:21.693Z,100
2018-10-02T06:42:02.186Z,100
2018-10-02T06:42:43.022Z,104
2018-10-02T06:43:23.641Z,96
2018-10-02T06:44:04.088Z,96
2018-10-02T06:44:44.685Z,92
2018-10-02T06:45:25.138Z,88
2018-10-02T06:46:05.552Z,88
2018-10-02T06:46:48.707Z,80
2018-10-02T06:47:28.030Z,80
2018-10-02T06:48:08.348Z,88
2018-10-02T06:48:48.824Z,92
2018-10-02T06:49:30.183Z,96
2018-10-02T06:50:10.759Z,92
2018-10-02T06:50:51.318Z,100
2018-10-02T06:51:31.892Z,100
2018-10-02T06:52:12.533Z,100
2018-10-02T06:52:52.870Z,96
2018-10-02T06:53:33.959Z,92
2018-10-02T06:54:14.382Z,88
2018-10-02T06:54:54.806Z,92
2018-10-02T06:55:35.551Z,112
2018-10-02T06:56:16.028Z,116
2018-10-02T06:56:56.946Z,120
2018-10-02T06:57:38.333Z,136
2018-10-02T06:58:20.129Z,160
2018-10-02T06:58:59.388Z,176
2018-10-02T06:59:39.715Z,188
2018-10-02T07:00:20.486Z,184
2018-10-02T07:01:00.600Z,184
2018-10-02T07:01:41.149Z,184
2018-10-02T07:02:21.514Z,184
2018-10-02T07:03:02.311Z,176
2018-10-02T07:03:42.651Z,172
2018-10-02T07:04:23.085Z,164
2018-10-02T07:05:03.911Z,164
2018-10-02T07:05:44.168Z,156
2018-10-02T07:06:24.528Z,140
2018-10-02T07:07:05.633Z,136
2018-10-02T07:07:46.142Z,128
2018-10-02T07:08:26.723Z,132
2018-10-02T07:09:07.936Z,140
2018-10-02T07:09:48.385Z,148
2018-10-02T07:10:28.788Z,176
2018-10-02T07:11:09.276Z,204
2018-10-02T07:11:49.718Z,224
2018-10-02T07:12:30.336Z,244
2018-10-02T07:13:10.973Z,260
2018-10-02T07:13:51.466Z,256
2018-10-02T07:14:32.991Z,248
2018-10-02T07:15:13.472Z,248
2018-10-02T07:15:53.892Z,240
2018-10-02T07:16:34.322Z,240
2018-10-02T07:17:15.008Z,256
2018-10-02T07:17:55.085Z,256
2018-10-02T07:18:35.738Z,256
2018-10-02T07:19:16.142Z,268
2018-10-02T07:19:56.576Z,252
2018-10-02T07:20:37.082Z,232
2018-10-02T07:21:17.429Z,208
2018-10-02T07:21:57.862Z,180
2018-10-02T07:22:38.289Z,164
2018-10-02T07:23:18.957Z,156
2018-10-02T07:23:59.425Z,164
2018-10-02T07:24:39.831Z,176
2018-10-02T07:25:20.412Z,192
2018-10-02T07:26:00.790Z,208
2018-10-02T07:26:41.345Z,216
2018-10-02T07:27:21.914Z,212
2018-10-02T07:28:02.499Z,220
2018-10-02T07:28:42.604Z,200
2018-10-02T07:29:23.068Z,188
2018-10-02T07:30:03.465Z,184
2018-10-02T07:30:44.041Z,156
2018-10-02T07:31:24.455Z,160
2018-10-02T07:32:04.782Z,152
2018-10-02T07:32:45.274Z,144
2018-10-02T07:33:25.604Z,152
2018-10-02T07:34:06.012Z,160
2018-10-02T07:34:46.697Z,196
2018-10-02T07:35:28.133Z,204
2018-10-02T07:36:08.712Z,244
2018-10-02T07:36:49.180Z,324
2018-10-02T07:37:29.532Z,372
2018-10-02T07:38:10.286Z,372
2018-10-02T07:38:50.805Z,348
2018-10-02T07:39:31.201Z,312
2018-10-02T07:40:11.848Z,276
2018-10-02T07:40:52.365Z,244
2018-10-02T07:41:32.946Z,228
2018-10-02T07:42:13.373Z,216
2018-10-02T07:42:53.887Z,196
2018-10-02T07:43:34.272Z,208
2018-10-02T07:44:14.908Z,224
2018-10-02T07:44:55.401Z,232
2018-10-02T07:45:36.178Z,232
2018-10-02T07:46:16.519Z,220
2018-10-02T07:46:57.107Z,224
2018-10-02T07:47:37.683Z,216
2018-10-02T07:48:18.374Z,208
2018-10-02T07:48:59.075Z,204
2018-10-02T07:49:39.833Z,196
2018-10-02T07:50:21.229Z,196
2018-10-02T07:51:01.504Z,192
2018-10-02T07:51:41.889Z,180
2018-10-02T07:52:22.962Z,172
2018-10-02T07:53:03.384Z,184
2018-10-02T07:53:44.094Z,200
2018-10-02T07:54:24.518Z,212
2018-10-02T07:55:04.747Z,208
2018-10-02T07:55:45.342Z,200
2018-10-02T07:56:26.323Z,192
2018-10-02T07:57:06.522Z,188
2018-10-02T07:57:47.060Z,188
2018-10-02T07:58:27.656Z,200
2018-10-02T07:59:08.211Z,200
2018-10-02T07:59:48.669Z,196
2018-10-02T08:00:29.536Z,228
2018-10-02T08:01:09.658Z,244
2018-10-02T08:01:50.118Z,248
2018-10-02T08:02:30.583Z,248
2018-10-02T08:03:10.948Z,252
2018-10-02T08:03:51.354Z,256
2018-10-02T08:04:31.796Z,244
2018-10-02T08:05:12.356Z,240
2018-10-02T08:05:52.642Z,252
2018-10-02T08:06:33.092Z,280
2018-10-02T08:07:13.496Z,292
2018-10-02T08:07:53.861Z,304
2018-10-02T08:08:34.423Z,308
2018-10-02T08:09:14.796Z,300
2018-10-02T08:09:55.489Z,320
2018-10-02T08:10:36.950Z,332
2018-10-02T08:11:17.625Z,288
2018-10-02T08:11:58.121Z,232
2018-10-02T08:12:38.525Z,204
2018-10-02T08:13:18.908Z,204
2018-10-02T08:13:59.361Z,200
2018-10-02T08:14:39.922Z,196
2018-10-02T08:15:20.282Z,192
2018-10-02T08:16:00.722Z,192
2018-10-02T08:16:42.289Z,200
2018-10-02T08:17:22.994Z,196
2018-10-02T08:18:03.468Z,188
2018-10-02T08:18:43.909Z,192
2018-10-02T08:19:24.507Z,192
2018-10-02T08:20:05.036Z,180
2018-10-02T08:20:45.609Z,168
2018-10-02T08:21:25.961Z,164
2018-10-02T08:22:06.278Z,176
2018-10-02T08:22:46.728Z,204
2018-10-02T08:23:27.118Z,236
2018-10-02T08:24:07.729Z,276
2018-10-02T08:24:48.266Z,300
2018-10-02T08:25:28.713Z,348
2018-10-02T08:26:09.238Z,380
2018-10-02T08:26:49.835Z,376
2018-10-02T08:27:30.382Z,368
2018-10-02T08:28:11.215Z,424
2018-10-02T08:28:52.473Z,440
2018-10-02T08:29:32.984Z,372
2018-10-02T08:30:13.475Z,328
2018-10-02T08:30:53.748Z,308
2018-10-02T08:31:34.151Z,312
2018-10-02T08:32:14.569Z,296
2018-10-02T08:32:55.171Z,308
2018-10-02T08:33:36.279Z,260
2018-10-02T08:34:17.120Z,252
2018-10-02T08:34:58.933Z,256
2018-10-02T08:35:39.341Z,288
2018-10-02T08:36:20.481Z,332
2018-10-02T08:37:01.198Z,316
2018-10-02T08:37:42.804Z,300
2018-10-02T08:38:24.513Z,272
2018-10-02T08:39:07.185Z,268
2018-10-02T08:39:47.696Z,248
2018-10-02T08:40:30.303Z,240
2018-10-02T08:41:10.621Z,236
2018-10-02T08:41:51.532Z,228
2018-10-02T08:42:33.363Z,228
2018-10-02T08:43:14.928Z,240
2018-10-02T08:43:56.708Z,240
2018-10-02T08:44:37.666Z,264
2018-10-02T08:45:18.248Z,276
2018-10-02T08:45:59.213Z,276
2018-10-02T08:46:40.655Z,300
2018-10-02T08:47:20.551Z,296
2018-10-02T08:48:01.086Z,284
2018-10-02T08:48:41.434Z,300
2018-10-02T08:49:22.455Z,300
2018-10-02T08:50:03.013Z,288
2018-10-02T08:50:43.506Z,300
2018-10-02T08:51:23.861Z,308
2018-10-02T08:52:04.643Z,340
2018-10-02T08:52:45.111Z,340
2018-10-02T08:53:25.625Z,344
2018-10-02T08:54:06.217Z,356
2018-10-02T08:54:46.555Z,384
2018-10-02T08:55:27.073Z,424
2018-10-02T08:56:07.652Z,408
2018-10-02T08:56:48.503Z,392
2018-10-02T08:57:29.097Z,336
2018-10-02T08:58:10.406Z,312
2018-10-02T08:58:53.543Z,320
2018-10-02T08:59:34.171Z,296
2018-10-02T09:00:16.580Z,296
2018-10-02T09:00:58.460Z,292
2018-10-02T09:01:38.841Z,284
2018-10-02T09:02:19.959Z,292
2018-10-02T09:03:01.406Z,316
2018-10-02T09:03:41.907Z,356
2018-10-02T09:04:23.412Z,364
2018-10-02T09:05:03.494Z,372
2018-10-02T09:05:44.177Z,416
2018-10-02T09:06:25.666Z,440
2018-10-02T09:07:07.914Z,480
2018-10-02T09:07:48.896Z,488
2018-10-02T09:08:29.520Z,456
2018-10-02T09:09:10.235Z,396
2018-10-02T09:09:51.968Z,360
2018-10-02T09:10:34.526Z,328
2018-10-02T09:11:15.364Z,344
2018-10-02T09:12:03.543Z,372
2018-10-02T09:12:44.229Z,364
2018-10-02T09:13:25.028Z,356
2018-10-02T09:14:06.747Z,324
2018-10-02T09:14:47.473Z,348
2018-10-02T09:15:27.963Z,332
2018-10-02T09:16:09.984Z,324
2018-10-02T09:16:51.286Z,304
2018-10-02T09:17:33.784Z,300
2018-10-02T09:18:16.125Z,300
2018-10-02T09:18:57.765Z,304
2018-10-02T09:19:38.469Z,336
2018-10-02T09:20:20.415Z,328
2018-10-02T09:21:01.027Z,348
2018-10-02T09:21:42.034Z,336
2018-10-02T09:22:22.508Z,324
2018-10-02T09:23:05.152Z,304
2018-10-02T09:23:45.450Z,280
2018-10-02T09:24:26.735Z,276
2018-10-02T09:25:07.236Z,268
2018-10-02T09:25:48.107Z,272
2018-10-02T09:26:28.739Z,260
2018-10-02T09:27:09.850Z,268
2018-10-02T09:27:50.260Z,264
2018-10-02T09:28:30.688Z,268
2018-10-02T09:29:11.173Z,272
2018-10-02T09:29:51.742Z,256
2018-10-02T09:30:32.392Z,264
2018-10-02T09:31:12.909Z,252
2018-10-02T09:31:53.610Z,256
2018-10-02T09:32:34.030Z,260
2018-10-02T09:33:15.457Z,236
2018-10-02T09:33:55.990Z,244
2018-10-02T09:34:36.433Z,248
2018-10-02T09:35:16.969Z,236
2018-10-02T09:35:57.431Z,216
2018-10-02T09:36:37.974Z,232
2018-10-02T09:37:18.828Z,228
2018-10-02T09:37:59.350Z,220
2018-10-02T09:38:40.609Z,228
2018-10-02T09:39:21.856Z,244
2018-10-02T09:40:02.329Z,272
2018-10-02T09:40:43.111Z,276
2018-10-02T09:41:25.623Z,292
2018-10-02T09:42:04.203Z,284
2018-10-02T09:42:45.925Z,280
2018-10-02T09:43:26.574Z,316
2018-10-02T09:44:07.006Z,340
2018-10-02T09:44:47.780Z,340
2018-10-02T09:45:28.824Z,360
2018-10-02T09:46:09.161Z,376
2018-10-02T09:46:50.181Z,400
2018-10-02T09:47:31.402Z,416
2018-10-02T09:48:12.600Z,448
2018-10-02T09:48:53.170Z,424
2018-10-02T09:49:33.683Z,416
2018-10-02T09:50:14.465Z,428
2018-10-02T09:50:54.650Z,388
2018-10-02T09:51:35.568Z,360
2018-10-02T09:52:16.369Z,340
2018-10-02T09:52:57.135Z,356
2018-10-02T09:53:38.384Z,432
2018-10-02T09:54:19.562Z,376
2018-10-02T09:55:03.109Z,368
2018-10-02T09:57:38.922Z,288
2018-10-02T09:58:22.103Z,308
2018-10-02T09:59:03.086Z,300
2018-10-02T09:59:43.454Z,348
2018-10-02T10:00:24.620Z,380
2018-10-02T10:01:05.206Z,344
2018-10-02T10:01:45.517Z,348
2018-10-02T10:02:25.983Z,356
2018-10-02T10:03:07.284Z,332
2018-10-02T10:03:47.757Z,292
2018-10-02T10:04:28.513Z,300
2018-10-02T10:05:09.343Z,316
2018-10-02T10:05:50.334Z,288
2018-10-02T10:06:30.833Z,260
2018-10-02T10:07:12.480Z,256
2018-10-02T10:07:52.661Z,268
2018-10-02T10:08:33.747Z,264
2018-10-02T10:09:14.947Z,260
2018-10-02T10:09:56.087Z,272
2018-10-02T10:10:36.344Z,268
2018-10-02T10:11:17.951Z,272
2018-10-02T10:11:58.279Z,268
2018-10-02T10:12:39.403Z,268
2018-10-02T10:13:19.362Z,244
2018-10-02T10:14:02.413Z,244
2018-10-02T10:14:44.352Z,252
2018-10-02T10:15:24.901Z,256
2018-10-02T10:16:05.500Z,276
2018-10-02T10:16:48.129Z,260
2018-10-02T10:17:29.937Z,256
2018-10-02T10:18:10.477Z,252
2018-10-02T10:18:51.498Z,232
2018-10-02T10:19:32.424Z,236
2018-10-02T10:20:12.802Z,244
2018-10-02T10:20:53.268Z,248
2018-10-02T10:21:33.892Z,256
2018-10-02T10:22:14.540Z,244
2018-10-02T10:22:55.144Z,260
2018-10-02T10:23:35.588Z,240
2018-10-02T10:24:16.206Z,252
2018-10-02T10:24:58.964Z,268
2018-10-02T10:25:38.067Z,280
2018-10-02T10:26:18.489Z,288
2018-10-02T10:26:59.503Z,296
2018-10-02T10:27:40.049Z,284
2018-10-02T10:28:21.016Z,316
2018-10-02T11:08:27.475Z,372
2018-10-02T11:09:07.946Z,388
2018-10-02T11:09:48.445Z,384
2018-10-02T11:10:29.137Z,416
2018-10-02T11:11:10.526Z,424
2018-10-02T11:11:50.949Z,408
2018-10-02T11:12:31.185Z,388
2018-10-02T11:13:12.061Z,388
2018-10-02T11:13:53.489Z,388
2018-10-02T11:16:36.951Z,384
2018-10-02T11:17:30.602Z,412
2018-10-02T11:18:27.875Z,372
2018-10-02T11:19:21.670Z,392
2018-10-02T11:20:08.319Z,380
2018-10-02T11:20:48.712Z,360
2018-10-02T11:21:30.193Z,384
2018-10-02T11:22:10.711Z,388
2018-10-02T11:22:51.797Z,368
2018-10-02T11:23:33.045Z,352
2018-10-02T11:24:14.156Z,368
2018-10-02T11:24:56.844Z,404
2018-10-02T11:25:37.843Z,384
2018-10-02T11:26:32.099Z,396
2018-10-02T11:27:14.066Z,444
2018-10-02T11:27:54.273Z,464
2018-10-02T11:28:37.295Z,496
2018-10-02T11:29:18.804Z,468
2018-10-02T11:30:29.478Z,440
2018-10-02T11:31:31.631Z,408
2018-10-02T11:32:19.685Z,420
2018-10-02T11:36:56.885Z,472
2018-10-02T11:38:03.723Z,396
2018-10-02T11:39:00.145Z,436
2018-10-02T11:41:46.967Z,384
2018-10-02T11:42:44.003Z,376
2018-10-02T11:43:40.635Z,388
2018-10-02T11:44:34.229Z,420
2018-10-02T11:46:42.109Z,484
2018-10-02T11:47:23.546Z,456
2018-10-02T11:48:05.077Z,456
2018-10-02T11:48:45.115Z,468
2018-10-02T11:49:26.111Z,476
2018-10-02T11:50:07.543Z,472
2018-10-02T11:50:48.295Z,464
2018-10-02T11:51:29.662Z,432
2018-10-02T11:52:10.696Z,400
2018-10-02T11:52:52.073Z,444
2018-10-02T11:53:35.036Z,404
2018-10-02T11:54:15.644Z,384
2018-10-02T11:54:57.526Z,384
2018-10-02T11:55:37.082Z,384
2018-10-02T11:56:18.112Z,352
2018-10-02T11:57:00.689Z,380
2018-10-02T11:57:40.952Z,372
2018-10-02T11:58:22.396Z,388
2018-10-02T11:59:04.514Z,372
2018-10-02T11:59:44.849Z,344
2018-10-02T12:00:25.685Z,340
2018-10-02T12:01:06.331Z,364
2018-10-02T12:01:47.213Z,424
2018-10-02T12:02:28.632Z,380
2018-10-02T12:03:09.855Z,372
2018-10-02T12:03:51.239Z,392
2018-10-02T12:04:31.384Z,416
2018-10-02T12:05:12.541Z,368
2018-10-02T12:05:53.283Z,356
2018-10-02T12:06:35.740Z,416
2018-10-02T12:07:17.090Z,356
2018-10-02T12:07:58.871Z,316
2018-10-02T12:08:39.741Z,328
2018-10-02T12:09:20.656Z,388
2018-10-02T12:10:01.036Z,416
2018-10-02T12:10:41.442Z,416
2018-10-02T12:11:22.900Z,400
2018-10-02T12:12:04.057Z,420
2018-10-02T12:12:44.751Z,472
2018-10-02T12:13:25.557Z,444
2018-10-02T12:14:06.612Z,392
2018-10-02T12:14:47.874Z,368
2018-10-02T12:15:32.103Z,384
2018-10-02T12:16:13.109Z,368
2018-10-02T12:16:54.209Z,384
2018-10-02T12:17:33.674Z,392
2018-10-02T12:18:14.492Z,412
2018-10-02T12:20:47.559Z,408
2018-10-02T12:21:28.247Z,416
2018-10-02T12:22:08.930Z,456
2018-10-02T12:22:50.913Z,460
2018-10-02T12:23:31.492Z,420
2018-10-02T12:24:12.887Z,460
2018-10-02T12:24:54.193Z,432
2018-10-02T12:25:34.706Z,448
2018-10-02T12:26:15.393Z,564
2018-10-02T12:26:56.671Z,512
2018-10-02T12:27:38.107Z,476
2018-10-02T12:28:18.832Z,492
2018-10-02T12:28:59.837Z,484
2018-10-02T12:29:40.260Z,524
2018-10-02T12:30:21.403Z,560
2018-10-02T12:31:01.842Z,548
2018-10-02T12:31:42.749Z,640
2018-10-02T12:32:23.369Z,632
2018-10-02T12:33:04.081Z,656
2018-10-02T12:33:44.435Z,636
2018-10-02T12:34:25.014Z,560
2018-10-02T12:35:05.894Z,528
2018-10-02T12:35:46.596Z,464
2018-10-02T12:36:27.112Z,444
2018-10-02T12:37:08.040Z,460
2018-10-02T12:37:48.636Z,504
2018-10-02T12:38:29.265Z,496
2018-10-02T12:39:09.794Z,496
2018-10-02T12:39:50.465Z,472
2018-10-02T12:40:30.905Z,496
2018-10-02T12:41:11.603Z,500
2018-10-02T12:41:52.286Z,480
2018-10-02T12:42:32.780Z,504
2018-10-02T12:43:13.206Z,488
2018-10-02T12:43:53.710Z,496
2018-10-02T12:44:34.265Z,548
2018-10-02T12:45:14.725Z,676
2018-10-02T12:45:55.240Z,628
2018-10-02T12:46:35.945Z,576
2018-10-02T12:47:16.919Z,548
2018-10-02T12:47:56.873Z,540
2018-10-02T12:48:37.572Z,532
2018-10-02T12:49:18.506Z,520
2018-10-02T12:49:58.945Z,540